Terminal Aerodrome Forecast
Issued by NWS

Home | Current Version | Previous Version | Text Only | Print | Product List | Glossary On
Versions: 1 2 3 4 5 6 7 8 9 10 11 12 13
000
FTUS45 KREV 171726
TAFRNO
TAF
KRNO 171726Z 1718/1818 32010G16KT P6SM SCT035 BKN050
     FM172000 36008KT P6SM SCT050 BKN070
     FM180200 VRB03KT P6SM FEW070=

USA.gov is the U.S. government's official web portal to all federal, state and local government web resources and services.